sensor_id;sensor_type;location;lat;lon;timestamp;P1;durP1;ratioP1;P2;durP2;ratioP2
49101;SDS011;34913;47.520;19.186;2023-08-17T00:01:33;17.42;;;12.32;;
49101;SDS011;34913;47.520;19.186;2023-08-17T00:03:59;14.10;;;12.60;;
49101;SDS011;34913;47.520;19.186;2023-08-17T00:06:24;17.42;;;13.05;;
49101;SDS011;34913;47.520;19.186;2023-08-17T00:08:50;16.38;;;13.15;;
49101;SDS011;34913;47.520;19.186;2023-08-17T00:11:16;16.15;;;13.18;;
49101;SDS011;34913;47.520;19.186;2023-08-17T00:13:41;15.38;;;13.75;;
49101;SDS011;34913;47.520;19.186;2023-08-17T00:16:07;18.63;;;15.00;;
49101;SDS011;34913;47.520;19.186;2023-08-17T00:18:32;17.35;;;14.13;;
49101;SDS011;34913;47.520;19.186;2023-08-17T00:20:59;17.13;;;14.15;;
49101;SDS011;34913;47.520;19.186;2023-08-17T00:23:25;16.52;;;13.25;;
49101;SDS011;34913;47.520;19.186;2023-08-17T00:25:50;15.93;;;14.23;;
49101;SDS011;34913;47.520;19.186;2023-08-17T00:28:15;15.13;;;13.52;;
49101;SDS011;34913;47.520;19.186;2023-08-17T00:30:41;16.27;;;14.50;;
49101;SDS011;34913;47.520;19.186;2023-08-17T00:33:06;17.45;;;13.55;;
49101;SDS011;34913;47.520;19.186;2023-08-17T00:35:32;16.10;;;14.00;;
49101;SDS011;34913;47.520;19.186;2023-08-17T00:37:58;15.70;;;13.43;;
49101;SDS011;34913;47.520;19.186;2023-08-17T00:40:24;15.20;;;13.13;;
49101;SDS011;34913;47.520;19.186;2023-08-17T00:42:49;14.85;;;13.38;;
49101;SDS011;34913;47.520;19.186;2023-08-17T00:45:15;14.60;;;13.18;;
49101;SDS011;34913;47.520;19.186;2023-08-17T00:47:40;15.02;;;12.65;;
49101;SDS011;34913;47.520;19.186;2023-08-17T00:50:07;13.68;;;12.25;;
49101;SDS011;34913;47.520;19.186;2023-08-17T00:52:32;13.40;;;11.98;;
49101;SDS011;34913;47.520;19.186;2023-08-17T00:54:59;17.30;;;12.57;;
49101;SDS011;34913;47.520;19.186;2023-08-17T00:57:26;14.80;;;11.93;;
49101;SDS011;34913;47.520;19.186;2023-08-17T00:59:52;13.95;;;11.77;;
49101;SDS011;34913;47.520;19.186;2023-08-17T01:02:18;17.73;;;11.88;;
49101;SDS011;34913;47.520;19.186;2023-08-17T01:04:44;12.70;;;11.18;;
49101;SDS011;34913;47.520;19.186;2023-08-17T01:07:09;15.43;;;11.35;;
49101;SDS011;34913;47.520;19.186;2023-08-17T01:09:35;15.75;;;11.05;;
49101;SDS011;34913;47.520;19.186;2023-08-17T01:12:12;11.55;;;10.35;;
49101;SDS011;34913;47.520;19.186;2023-08-17T01:15:27;13.27;;;9.93;;
49101;SDS011;34913;47.520;19.186;2023-08-17T01:17:37;10.35;;;9.27;;
49101;SDS011;34913;47.520;19.186;2023-08-17T01:20:09;13.30;;;9.48;;
49101;SDS011;34913;47.520;19.186;2023-08-17T01:22:37;10.50;;;9.40;;
49101;SDS011;34913;47.520;19.186;2023-08-17T01:25:05;9.60;;;8.70;;
49101;SDS011;34913;47.520;19.186;2023-08-17T01:27:33;14.00;;;9.32;;
49101;SDS011;34913;47.520;19.186;2023-08-17T01:30:04;9.40;;;8.50;;
49101;SDS011;34913;47.520;19.186;2023-08-17T01:32:32;15.23;;;9.15;;
49101;SDS011;34913;47.520;19.186;2023-08-17T01:35:26;12.38;;;8.50;;
49101;SDS011;34913;47.520;19.186;2023-08-17T01:37:58;9.93;;;8.93;;
49101;SDS011;34913;47.520;19.186;2023-08-17T01:40:28;12.10;;;8.63;;
49101;SDS011;34913;47.520;19.186;2023-08-17T01:42:57;10.70;;;9.13;;
49101;SDS011;34913;47.520;19.186;2023-08-17T01:45:24;12.35;;;9.30;;
49101;SDS011;34913;47.520;19.186;2023-08-17T01:47:50;12.20;;;9.30;;
49101;SDS011;34913;47.520;19.186;2023-08-17T01:50:15;12.98;;;8.70;;
49101;SDS011;34913;47.520;19.186;2023-08-17T01:52:41;12.23;;;9.45;;
49101;SDS011;34913;47.520;19.186;2023-08-17T01:55:07;14.70;;;8.70;;
49101;SDS011;34913;47.520;19.186;2023-08-17T01:57:33;9.50;;;8.57;;
49101;SDS011;34913;47.520;19.186;2023-08-17T01:59:59;10.82;;;8.95;;
49101;SDS011;34913;47.520;19.186;2023-08-17T02:02:25;16.05;;;8.85;;
49101;SDS011;34913;47.520;19.186;2023-08-17T02:04:50;9.52;;;8.52;;
49101;SDS011;34913;47.520;19.186;2023-08-17T02:07:15;12.02;;;9.00;;
49101;SDS011;34913;47.520;19.186;2023-08-17T02:09:41;10.02;;;8.27;;
49101;SDS011;34913;47.520;19.186;2023-08-17T02:12:06;11.18;;;8.40;;
49101;SDS011;34913;47.520;19.186;2023-08-17T02:14:33;10.23;;;9.13;;
49101;SDS011;34913;47.520;19.186;2023-08-17T02:16:58;10.10;;;9.10;;
49101;SDS011;34913;47.520;19.186;2023-08-17T02:19:24;13.15;;;9.75;;
49101;SDS011;34913;47.520;19.186;2023-08-17T02:21:49;11.10;;;9.30;;
49101;SDS011;34913;47.520;19.186;2023-08-17T02:24:15;12.27;;;9.57;;
49101;SDS011;34913;47.520;19.186;2023-08-17T02:26:40;12.52;;;9.23;;
49101;SDS011;34913;47.520;19.186;2023-08-17T02:29:05;12.50;;;9.20;;
49101;SDS011;34913;47.520;19.186;2023-08-17T02:31:31;10.15;;;8.30;;
49101;SDS011;34913;47.520;19.186;2023-08-17T02:33:56;11.80;;;8.82;;
49101;SDS011;34913;47.520;19.186;2023-08-17T02:36:26;11.80;;;8.88;;
49101;SDS011;34913;47.520;19.186;2023-08-17T02:38:52;13.07;;;8.75;;
49101;SDS011;34913;47.520;19.186;2023-08-17T02:41:18;9.50;;;8.02;;
49101;SDS011;34913;47.520;19.186;2023-08-17T02:43:43;11.18;;;8.63;;
49101;SDS011;34913;47.520;19.186;2023-08-17T02:46:09;10.10;;;8.57;;
49101;SDS011;34913;47.520;19.186;2023-08-17T02:48:34;11.60;;;8.07;;
49101;SDS011;34913;47.520;19.186;2023-08-17T02:51:00;11.98;;;8.65;;
49101;SDS011;34913;47.520;19.186;2023-08-17T02:53:25;9.75;;;8.48;;
49101;SDS011;34913;47.520;19.186;2023-08-17T02:55:51;12.18;;;8.52;;
49101;SDS011;34913;47.520;19.186;2023-08-17T02:58:16;12.50;;;8.88;;
49101;SDS011;34913;47.520;19.186;2023-08-17T03:00:41;11.02;;;8.40;;
49101;SDS011;34913;47.520;19.186;2023-08-17T03:03:07;12.65;;;8.98;;
49101;SDS011;34913;47.520;19.186;2023-08-17T03:05:33;9.93;;;8.77;;
49101;SDS011;34913;47.520;19.186;2023-08-17T03:07:58;10.52;;;9.15;;
49101;SDS011;34913;47.520;19.186;2023-08-17T03:10:24;10.23;;;9.05;;
49101;SDS011;34913;47.520;19.186;2023-08-17T03:12:50;11.73;;;8.85;;
49101;SDS011;34913;47.520;19.186;2023-08-17T03:15:16;12.48;;;9.27;;
49101;SDS011;34913;47.520;19.186;2023-08-17T03:17:41;11.27;;;9.50;;
49101;SDS011;34913;47.520;19.186;2023-08-17T03:20:07;10.90;;;9.75;;
49101;SDS011;34913;47.520;19.186;2023-08-17T03:22:33;10.30;;;9.30;;
49101;SDS011;34913;47.520;19.186;2023-08-17T03:24:59;11.15;;;9.55;;
49101;SDS011;34913;47.520;19.186;2023-08-17T03:27:24;12.18;;;10.13;;
49101;SDS011;34913;47.520;19.186;2023-08-17T03:29:50;10.65;;;9.70;;
49101;SDS011;34913;47.520;19.186;2023-08-17T03:32:16;12.88;;;10.00;;
49101;SDS011;34913;47.520;19.186;2023-08-17T03:34:41;13.57;;;9.95;;
49101;SDS011;34913;47.520;19.186;2023-08-17T03:37:07;11.55;;;10.45;;
49101;SDS011;34913;47.520;19.186;2023-08-17T03:39:32;11.70;;;9.95;;
49101;SDS011;34913;47.520;19.186;2023-08-17T03:41:58;11.23;;;10.02;;
49101;SDS011;34913;47.520;19.186;2023-08-17T03:44:23;10.82;;;9.73;;
49101;SDS011;34913;47.520;19.186;2023-08-17T03:46:48;14.20;;;10.20;;
49101;SDS011;34913;47.520;19.186;2023-08-17T03:49:14;14.93;;;10.77;;
49101;SDS011;34913;47.520;19.186;2023-08-17T03:51:39;12.23;;;10.98;;
49101;SDS011;34913;47.520;19.186;2023-08-17T03:54:05;13.30;;;11.15;;
49101;SDS011;34913;47.520;19.186;2023-08-17T03:56:30;16.73;;;12.15;;
49101;SDS011;34913;47.520;19.186;2023-08-17T03:58:56;12.95;;;11.65;;
49101;SDS011;34913;47.520;19.186;2023-08-17T04:01:22;13.73;;;12.30;;
49101;SDS011;34913;47.520;19.186;2023-08-17T04:03:47;13.55;;;11.75;;
49101;SDS011;34913;47.520;19.186;2023-08-17T04:06:12;19.05;;;12.63;;
49101;SDS011;34913;47.520;19.186;2023-08-17T04:08:39;17.10;;;11.32;;
49101;SDS011;34913;47.520;19.186;2023-08-17T04:11:04;16.40;;;11.90;;
49101;SDS011;34913;47.520;19.186;2023-08-17T04:13:30;13.20;;;11.90;;
49101;SDS011;34913;47.520;19.186;2023-08-17T04:15:56;13.20;;;11.80;;
49101;SDS011;34913;47.520;19.186;2023-08-17T04:18:21;15.23;;;11.40;;
49101;SDS011;34913;47.520;19.186;2023-08-17T04:20:47;14.63;;;11.27;;
49101;SDS011;34913;47.520;19.186;2023-08-17T04:23:12;14.23;;;11.38;;
49101;SDS011;34913;47.520;19.186;2023-08-17T04:25:38;13.48;;;11.63;;
49101;SDS011;34913;47.520;19.186;2023-08-17T04:28:03;14.13;;;12.23;;
49101;SDS011;34913;47.520;19.186;2023-08-17T04:30:29;14.45;;;12.45;;
49101;SDS011;34913;47.520;19.186;2023-08-17T04:32:54;15.77;;;12.18;;
49101;SDS011;34913;47.520;19.186;2023-08-17T04:35:20;13.23;;;11.82;;
49101;SDS011;34913;47.520;19.186;2023-08-17T04:37:46;15.13;;;13.40;;
49101;SDS011;34913;47.520;19.186;2023-08-17T04:40:12;14.70;;;11.95;;
49101;SDS011;34913;47.520;19.186;2023-08-17T04:42:38;14.20;;;12.75;;
49101;SDS011;34913;47.520;19.186;2023-08-17T04:45:03;14.82;;;13.02;;
49101;SDS011;34913;47.520;19.186;2023-08-17T04:47:29;14.25;;;12.65;;
49101;SDS011;34913;47.520;19.186;2023-08-17T04:49:54;20.55;;;13.27;;
49101;SDS011;34913;47.520;19.186;2023-08-17T04:52:19;17.25;;;12.95;;
49101;SDS011;34913;47.520;19.186;2023-08-17T04:54:45;14.23;;;12.82;;
49101;SDS011;34913;47.520;19.186;2023-08-17T04:57:10;16.77;;;12.23;;
49101;SDS011;34913;47.520;19.186;2023-08-17T04:59:36;17.13;;;12.70;;
49101;SDS011;34913;47.520;19.186;2023-08-17T05:02:01;15.75;;;12.43;;
49101;SDS011;34913;47.520;19.186;2023-08-17T05:04:27;13.68;;;12.25;;
49101;SDS011;34913;47.520;19.186;2023-08-17T05:06:55;14.25;;;12.77;;
49101;SDS011;34913;47.520;19.186;2023-08-17T05:09:20;16.00;;;13.15;;
49101;SDS011;34913;47.520;19.186;2023-08-17T05:11:46;18.63;;;13.10;;
49101;SDS011;34913;47.520;19.186;2023-08-17T05:14:12;14.48;;;13.05;;
49101;SDS011;34913;47.520;19.186;2023-08-17T05:16:37;14.88;;;13.45;;
49101;SDS011;34913;47.520;19.186;2023-08-17T05:19:03;14.35;;;12.15;;
49101;SDS011;34913;47.520;19.186;2023-08-17T05:21:29;15.00;;;13.02;;
49101;SDS011;34913;47.520;19.186;2023-08-17T05:23:54;17.80;;;12.23;;
49101;SDS011;34913;47.520;19.186;2023-08-17T05:26:21;13.57;;;12.18;;
49101;SDS011;34913;47.520;19.186;2023-08-17T05:28:47;14.75;;;12.07;;
49101;SDS011;34913;47.520;19.186;2023-08-17T05:31:13;15.02;;;12.05;;
49101;SDS011;34913;47.520;19.186;2023-08-17T05:33:38;13.32;;;11.18;;
49101;SDS011;34913;47.520;19.186;2023-08-17T05:36:06;16.25;;;9.93;;
49101;SDS011;34913;47.520;19.186;2023-08-17T05:38:31;11.88;;;10.35;;
49101;SDS011;34913;47.520;19.186;2023-08-17T05:40:57;10.18;;;8.18;;
49101;SDS011;34913;47.520;19.186;2023-08-17T05:43:24;7.80;;;6.32;;
49101;SDS011;34913;47.520;19.186;2023-08-17T05:45:50;8.00;;;6.85;;
49101;SDS011;34913;47.520;19.186;2023-08-17T05:48:15;7.35;;;6.57;;
49101;SDS011;34913;47.520;19.186;2023-08-17T05:50:41;9.55;;;6.97;;
49101;SDS011;34913;47.520;19.186;2023-08-17T05:53:07;8.60;;;5.95;;
49101;SDS011;34913;47.520;19.186;2023-08-17T05:55:33;10.77;;;6.10;;
49101;SDS011;34913;47.520;19.186;2023-08-17T05:57:58;7.32;;;5.57;;
49101;SDS011;34913;47.520;19.186;2023-08-17T06:00:24;8.60;;;5.97;;
49101;SDS011;34913;47.520;19.186;2023-08-17T06:02:50;9.52;;;6.35;;
49101;SDS011;34913;47.520;19.186;2023-08-17T06:05:16;8.57;;;6.07;;
49101;SDS011;34913;47.520;19.186;2023-08-17T06:07:42;9.38;;;5.90;;
49101;SDS011;34913;47.520;19.186;2023-08-17T06:10:08;7.85;;;5.70;;
49101;SDS011;34913;47.520;19.186;2023-08-17T06:12:34;8.18;;;5.72;;
49101;SDS011;34913;47.520;19.186;2023-08-17T06:15:01;9.18;;;6.00;;
49101;SDS011;34913;47.520;19.186;2023-08-17T06:17:27;7.15;;;5.40;;
49101;SDS011;34913;47.520;19.186;2023-08-17T06:19:53;8.77;;;5.32;;
49101;SDS011;34913;47.520;19.186;2023-08-17T06:22:18;10.13;;;5.68;;
49101;SDS011;34913;47.520;19.186;2023-08-17T06:24:43;6.32;;;5.70;;
49101;SDS011;34913;47.520;19.186;2023-08-17T06:27:09;9.35;;;5.88;;
49101;SDS011;34913;47.520;19.186;2023-08-17T06:29:34;6.82;;;5.70;;
49101;SDS011;34913;47.520;19.186;2023-08-17T06:32:00;7.80;;;6.13;;
49101;SDS011;34913;47.520;19.186;2023-08-17T06:34:25;14.20;;;7.57;;
49101;SDS011;34913;47.520;19.186;2023-08-17T06:36:57;13.77;;;8.18;;
49101;SDS011;34913;47.520;19.186;2023-08-17T06:39:23;12.82;;;7.15;;
49101;SDS011;34913;47.520;19.186;2023-08-17T06:41:49;7.75;;;6.22;;
49101;SDS011;34913;47.520;19.186;2023-08-17T06:44:15;13.93;;;7.97;;
49101;SDS011;34913;47.520;19.186;2023-08-17T06:46:40;15.20;;;7.78;;
49101;SDS011;34913;47.520;19.186;2023-08-17T06:49:05;12.52;;;8.18;;
49101;SDS011;34913;47.520;19.186;2023-08-17T06:51:31;11.95;;;6.30;;
49101;SDS011;34913;47.520;19.186;2023-08-17T06:53:56;6.80;;;6.07;;
49101;SDS011;34913;47.520;19.186;2023-08-17T06:56:22;6.97;;;5.50;;
49101;SDS011;34913;47.520;19.186;2023-08-17T06:58:48;7.22;;;6.15;;
49101;SDS011;34913;47.520;19.186;2023-08-17T07:01:13;9.43;;;5.70;;
49101;SDS011;34913;47.520;19.186;2023-08-17T07:03:39;6.97;;;5.85;;
49101;SDS011;34913;47.520;19.186;2023-08-17T07:06:05;7.15;;;5.65;;
49101;SDS011;34913;47.520;19.186;2023-08-17T07:08:30;10.05;;;5.95;;
49101;SDS011;34913;47.520;19.186;2023-08-17T07:10:58;7.93;;;6.03;;
49101;SDS011;34913;47.520;19.186;2023-08-17T07:13:23;9.98;;;5.90;;
49101;SDS011;34913;47.520;19.186;2023-08-17T07:15:49;6.22;;;5.63;;
49101;SDS011;34913;47.520;19.186;2023-08-17T07:18:14;6.82;;;5.10;;
49101;SDS011;34913;47.520;19.186;2023-08-17T07:20:39;10.07;;;6.20;;
49101;SDS011;34913;47.520;19.186;2023-08-17T07:23:05;8.13;;;5.80;;
49101;SDS011;34913;47.520;19.186;2023-08-17T07:25:30;8.85;;;5.32;;
49101;SDS011;34913;47.520;19.186;2023-08-17T07:27:56;6.25;;;5.25;;
49101;SDS011;34913;47.520;19.186;2023-08-17T07:30:21;10.43;;;5.50;;
49101;SDS011;34913;47.520;19.186;2023-08-17T07:32:47;7.40;;;5.68;;
49101;SDS011;34913;47.520;19.186;2023-08-17T07:35:12;6.97;;;5.32;;
49101;SDS011;34913;47.520;19.186;2023-08-17T07:37:38;9.18;;;5.50;;
49101;SDS011;34913;47.520;19.186;2023-08-17T07:40:03;6.30;;;5.43;;
49101;SDS011;34913;47.520;19.186;2023-08-17T07:42:29;6.03;;;5.20;;
49101;SDS011;34913;47.520;19.186;2023-08-17T07:44:54;8.15;;;5.45;;
49101;SDS011;34913;47.520;19.186;2023-08-17T07:47:20;7.32;;;5.45;;
49101;SDS011;34913;47.520;19.186;2023-08-17T07:49:45;7.18;;;4.82;;
49101;SDS011;34913;47.520;19.186;2023-08-17T07:52:11;6.20;;;5.20;;
49101;SDS011;34913;47.520;19.186;2023-08-17T07:54:36;7.20;;;5.00;;
49101;SDS011;34913;47.520;19.186;2023-08-17T07:57:02;6.57;;;4.75;;
49101;SDS011;34913;47.520;19.186;2023-08-17T07:59:28;5.15;;;4.50;;
49101;SDS011;34913;47.520;19.186;2023-08-17T08:01:54;6.05;;;4.43;;
49101;SDS011;34913;47.520;19.186;2023-08-17T08:04:19;7.88;;;4.45;;
49101;SDS011;34913;47.520;19.186;2023-08-17T08:06:45;6.60;;;3.90;;
49101;SDS011;34913;47.520;19.186;2023-08-17T08:09:12;5.78;;;3.80;;
49101;SDS011;34913;47.520;19.186;2023-08-17T08:11:37;9.50;;;3.65;;
49101;SDS011;34913;47.520;19.186;2023-08-17T08:14:03;8.48;;;3.50;;
49101;SDS011;34913;47.520;19.186;2023-08-17T08:16:29;3.58;;;3.13;;
49101;SDS011;34913;47.520;19.186;2023-08-17T08:18:57;4.85;;;3.47;;
49101;SDS011;34913;47.520;19.186;2023-08-17T08:21:23;4.97;;;3.40;;
49101;SDS011;34913;47.520;19.186;2023-08-17T08:23:48;4.72;;;3.60;;
49101;SDS011;34913;47.520;19.186;2023-08-17T08:26:14;4.68;;;3.72;;
49101;SDS011;34913;47.520;19.186;2023-08-17T08:28:39;4.25;;;3.50;;
49101;SDS011;34913;47.520;19.186;2023-08-17T08:31:05;3.45;;;3.15;;
49101;SDS011;34913;47.520;19.186;2023-08-17T08:33:30;4.13;;;3.13;;
49101;SDS011;34913;47.520;19.186;2023-08-17T08:35:56;8.68;;;3.17;;
49101;SDS011;34913;47.520;19.186;2023-08-17T08:38:22;5.75;;;3.10;;
49101;SDS011;34913;47.520;19.186;2023-08-17T08:40:47;3.92;;;3.45;;
49101;SDS011;34913;47.520;19.186;2023-08-17T08:43:16;4.07;;;3.22;;
49101;SDS011;34913;47.520;19.186;2023-08-17T08:45:42;5.30;;;3.38;;
49101;SDS011;34913;47.520;19.186;2023-08-17T08:48:10;7.75;;;7.05;;
49101;SDS011;34913;47.520;19.186;2023-08-17T08:50:36;6.50;;;4.40;;
49101;SDS011;34913;47.520;19.186;2023-08-17T08:53:06;6.57;;;3.72;;
49101;SDS011;34913;47.520;19.186;2023-08-17T08:55:39;6.72;;;3.35;;
49101;SDS011;34913;47.520;19.186;2023-08-17T08:58:12;4.10;;;2.60;;
49101;SDS011;34913;47.520;19.186;2023-08-17T09:00:41;3.80;;;2.90;;
49101;SDS011;34913;47.520;19.186;2023-08-17T09:03:07;3.10;;;2.80;;
49101;SDS011;34913;47.520;19.186;2023-08-17T09:05:34;3.95;;;2.90;;
49101;SDS011;34913;47.520;19.186;2023-08-17T09:08:00;3.92;;;2.85;;
49101;SDS011;34913;47.520;19.186;2023-08-17T09:10:26;4.90;;;3.20;;
49101;SDS011;34913;47.520;19.186;2023-08-17T09:12:53;5.10;;;2.83;;
49101;SDS011;34913;47.520;19.186;2023-08-17T09:15:18;7.63;;;3.13;;
49101;SDS011;34913;47.520;19.186;2023-08-17T09:17:44;4.47;;;3.30;;
49101;SDS011;34913;47.520;19.186;2023-08-17T09:20:10;5.85;;;3.30;;
49101;SDS011;34913;47.520;19.186;2023-08-17T09:22:37;4.47;;;3.28;;
49101;SDS011;34913;47.520;19.186;2023-08-17T09:25:04;4.28;;;3.33;;
49101;SDS011;34913;47.520;19.186;2023-08-17T09:27:33;6.05;;;3.53;;
49101;SDS011;34913;47.520;19.186;2023-08-17T09:30:03;8.02;;;3.53;;
49101;SDS011;34913;47.520;19.186;2023-08-17T09:32:32;3.80;;;3.17;;
49101;SDS011;34913;47.520;19.186;2023-08-17T09:35:04;4.72;;;3.50;;
49101;SDS011;34913;47.520;19.186;2023-08-17T09:37:31;6.35;;;3.13;;
49101;SDS011;34913;47.520;19.186;2023-08-17T09:39:57;3.50;;;3.20;;
49101;SDS011;34913;47.520;19.186;2023-08-17T09:42:23;5.15;;;3.47;;
49101;SDS011;34913;47.520;19.186;2023-08-17T09:44:50;3.80;;;3.38;;
49101;SDS011;34913;47.520;19.186;2023-08-17T09:47:19;3.60;;;3.15;;
49101;SDS011;34913;47.520;19.186;2023-08-17T09:49:49;5.13;;;3.60;;
49101;SDS011;34913;47.520;19.186;2023-08-17T09:52:18;5.90;;;3.20;;
49101;SDS011;34913;47.520;19.186;2023-08-17T09:54:44;4.20;;;3.60;;
49101;SDS011;34913;47.520;19.186;2023-08-17T09:57:12;3.63;;;3.30;;
49101;SDS011;34913;47.520;19.186;2023-08-17T09:59:37;4.72;;;3.80;;
49101;SDS011;34913;47.520;19.186;2023-08-17T10:02:03;3.80;;;3.50;;
49101;SDS011;34913;47.520;19.186;2023-08-17T10:04:30;4.20;;;3.80;;
49101;SDS011;34913;47.520;19.186;2023-08-17T10:06:59;4.90;;;3.50;;
49101;SDS011;34913;47.520;19.186;2023-08-17T10:09:28;4.20;;;3.63;;
49101;SDS011;34913;47.520;19.186;2023-08-17T10:12:01;5.38;;;3.55;;
49101;SDS011;34913;47.520;19.186;2023-08-17T10:14:37;3.15;;;2.88;;
49101;SDS011;34913;47.520;19.186;2023-08-17T10:17:11;4.65;;;3.15;;
49101;SDS011;34913;47.520;19.186;2023-08-17T10:19:56;4.38;;;3.10;;
49101;SDS011;34913;47.520;19.186;2023-08-17T10:22:26;3.30;;;3.00;;
49101;SDS011;34913;47.520;19.186;2023-08-17T10:24:57;3.53;;;2.80;;
49101;SDS011;34913;47.520;19.186;2023-08-17T10:27:25;3.22;;;2.80;;
49101;SDS011;34913;47.520;19.186;2023-08-17T10:29:51;4.22;;;3.20;;
49101;SDS011;34913;47.520;19.186;2023-08-17T10:32:17;3.35;;;2.70;;
49101;SDS011;34913;47.520;19.186;2023-08-17T10:34:43;5.30;;;3.20;;
49101;SDS011;34913;47.520;19.186;2023-08-17T10:37:09;7.18;;;3.30;;
49101;SDS011;34913;47.520;19.186;2023-08-17T10:39:38;4.55;;;3.15;;
49101;SDS011;34913;47.520;19.186;2023-08-17T10:42:10;4.18;;;3.00;;
49101;SDS011;34913;47.520;19.186;2023-08-17T10:44:45;5.82;;;3.10;;
49101;SDS011;34913;47.520;19.186;2023-08-17T10:50:06;3.38;;;2.90;;
49101;SDS011;34913;47.520;19.186;2023-08-17T10:52:47;4.78;;;3.15;;
49101;SDS011;34913;47.520;19.186;2023-08-17T10:55:14;5.10;;;2.85;;
49101;SDS011;34913;47.520;19.186;2023-08-17T10:57:43;3.47;;;2.90;;
49101;SDS011;34913;47.520;19.186;2023-08-17T11:00:18;3.42;;;2.75;;
49101;SDS011;34913;47.520;19.186;2023-08-17T11:05:36;13.45;;;3.13;;
49101;SDS011;34913;47.520;19.186;2023-08-17T11:08:28;10.75;;;3.60;;
49101;SDS011;34913;47.520;19.186;2023-08-17T11:10:56;5.00;;;2.92;;
49101;SDS011;34913;47.520;19.186;2023-08-17T11:13:29;4.10;;;3.08;;
49101;SDS011;34913;47.520;19.186;2023-08-17T11:15:57;4.05;;;3.15;;
49101;SDS011;34913;47.520;19.186;2023-08-17T11:18:23;4.30;;;3.13;;
49101;SDS011;34913;47.520;19.186;2023-08-17T11:20:48;4.60;;;3.13;;
49101;SDS011;34913;47.520;19.186;2023-08-17T11:23:15;4.25;;;3.20;;
49101;SDS011;34913;47.520;19.186;2023-08-17T11:25:41;3.97;;;3.00;;
49101;SDS011;34913;47.520;19.186;2023-08-17T11:28:07;4.13;;;2.97;;
49101;SDS011;34913;47.520;19.186;2023-08-17T11:30:36;4.43;;;2.92;;
49101;SDS011;34913;47.520;19.186;2023-08-17T11:33:04;3.22;;;2.92;;
49101;SDS011;34913;47.520;19.186;2023-08-17T11:35:30;6.40;;;2.92;;
49101;SDS011;34913;47.520;19.186;2023-08-17T11:37:55;9.18;;;3.40;;
49101;SDS011;34913;47.520;19.186;2023-08-17T11:40:21;4.28;;;3.10;;
49101;SDS011;34913;47.520;19.186;2023-08-17T11:42:46;4.32;;;3.13;;
49101;SDS011;34913;47.520;19.186;2023-08-17T11:45:13;3.40;;;2.88;;
49101;SDS011;34913;47.520;19.186;2023-08-17T11:47:39;4.53;;;3.15;;
49101;SDS011;34913;47.520;19.186;2023-08-17T11:50:06;3.67;;;3.13;;
49101;SDS011;34913;47.520;19.186;2023-08-17T11:52:33;5.88;;;2.90;;
49101;SDS011;34913;47.520;19.186;2023-08-17T11:55:01;5.13;;;3.10;;
49101;SDS011;34913;47.520;19.186;2023-08-17T11:57:29;3.95;;;3.28;;
49101;SDS011;34913;47.520;19.186;2023-08-17T11:59:55;5.60;;;3.10;;
49101;SDS011;34913;47.520;19.186;2023-08-17T12:02:25;5.15;;;3.38;;
49101;SDS011;34913;47.520;19.186;2023-08-17T12:04:54;3.67;;;3.08;;
49101;SDS011;34913;47.520;19.186;2023-08-17T12:07:21;3.42;;;2.80;;
49101;SDS011;34913;47.520;19.186;2023-08-17T12:09:49;3.88;;;2.80;;
49101;SDS011;34913;47.520;19.186;2023-08-17T12:12:18;4.65;;;3.30;;
49101;SDS011;34913;47.520;19.186;2023-08-17T12:14:46;7.50;;;3.05;;
49101;SDS011;34913;47.520;19.186;2023-08-17T12:17:15;3.25;;;2.95;;
49101;SDS011;34913;47.520;19.186;2023-08-17T12:19:41;3.40;;;3.10;;
49101;SDS011;34913;47.520;19.186;2023-08-17T12:22:08;5.18;;;3.40;;
49101;SDS011;34913;47.520;19.186;2023-08-17T12:24:33;4.60;;;3.13;;
49101;SDS011;34913;47.520;19.186;2023-08-17T12:27:01;3.33;;;3.03;;
49101;SDS011;34913;47.520;19.186;2023-08-17T12:29:27;4.18;;;2.83;;
49101;SDS011;34913;47.520;19.186;2023-08-17T12:31:53;5.00;;;3.47;;
49101;SDS011;34913;47.520;19.186;2023-08-17T12:34:18;3.20;;;2.90;;
49101;SDS011;34913;47.520;19.186;2023-08-17T12:36:44;3.45;;;3.00;;
49101;SDS011;34913;47.520;19.186;2023-08-17T12:39:09;5.22;;;3.10;;
49101;SDS011;34913;47.520;19.186;2023-08-17T12:41:35;3.70;;;3.10;;
49101;SDS011;34913;47.520;19.186;2023-08-17T12:44:00;3.65;;;2.95;;
49101;SDS011;34913;47.520;19.186;2023-08-17T12:46:27;3.85;;;3.20;;
49101;SDS011;34913;47.520;19.186;2023-08-17T12:48:52;4.47;;;3.10;;
49101;SDS011;34913;47.520;19.186;2023-08-17T12:51:18;3.65;;;3.00;;
49101;SDS011;34913;47.520;19.186;2023-08-17T12:53:43;4.82;;;3.10;;
49101;SDS011;34913;47.520;19.186;2023-08-17T12:56:09;5.05;;;3.00;;
49101;SDS011;34913;47.520;19.186;2023-08-17T12:58:35;4.70;;;3.30;;
49101;SDS011;34913;47.520;19.186;2023-08-17T13:01:01;3.20;;;2.90;;
49101;SDS011;34913;47.520;19.186;2023-08-17T13:03:27;6.85;;;3.20;;
49101;SDS011;34913;47.520;19.186;2023-08-17T13:05:52;12.60;;;3.70;;
49101;SDS011;34913;47.520;19.186;2023-08-17T13:08:18;5.53;;;3.15;;
49101;SDS011;34913;47.520;19.186;2023-08-17T13:10:43;5.18;;;3.05;;
49101;SDS011;34913;47.520;19.186;2023-08-17T13:13:09;3.50;;;3.10;;
49101;SDS011;34913;47.520;19.186;2023-08-17T13:15:34;8.18;;;3.40;;
49101;SDS011;34913;47.520;19.186;2023-08-17T13:17:59;7.05;;;3.22;;
49101;SDS011;34913;47.520;19.186;2023-08-17T13:20:26;3.55;;;3.22;;
49101;SDS011;34913;47.520;19.186;2023-08-17T13:22:51;4.30;;;3.20;;
49101;SDS011;34913;47.520;19.186;2023-08-17T13:25:17;5.95;;;3.28;;
49101;SDS011;34913;47.520;19.186;2023-08-17T13:27:42;4.05;;;3.22;;
49101;SDS011;34913;47.520;19.186;2023-08-17T13:30:08;3.90;;;3.30;;
49101;SDS011;34913;47.520;19.186;2023-08-17T13:32:33;3.97;;;3.15;;
49101;SDS011;34913;47.520;19.186;2023-08-17T13:35:00;5.40;;;3.45;;
49101;SDS011;34913;47.520;19.186;2023-08-17T13:37:26;5.07;;;3.53;;
49101;SDS011;34913;47.520;19.186;2023-08-17T13:39:53;5.43;;;3.65;;
49101;SDS011;34913;47.520;19.186;2023-08-17T13:42:18;6.97;;;3.75;;
49101;SDS011;34913;47.520;19.186;2023-08-17T13:44:43;5.55;;;4.05;;
49101;SDS011;34913;47.520;19.186;2023-08-17T13:47:10;7.35;;;4.57;;
49101;SDS011;34913;47.520;19.186;2023-08-17T13:49:36;4.45;;;4.05;;
49101;SDS011;34913;47.520;19.186;2023-08-17T13:52:01;7.20;;;3.90;;
49101;SDS011;34913;47.520;19.186;2023-08-17T13:54:27;5.57;;;4.10;;
49101;SDS011;34913;47.520;19.186;2023-08-17T13:56:53;5.55;;;4.10;;
49101;SDS011;34913;47.520;19.186;2023-08-17T13:59:18;6.05;;;4.25;;
49101;SDS011;34913;47.520;19.186;2023-08-17T14:01:43;5.40;;;4.00;;
49101;SDS011;34913;47.520;19.186;2023-08-17T14:04:09;6.03;;;4.40;;
49101;SDS011;34913;47.520;19.186;2023-08-17T14:06:39;5.70;;;4.47;;
49101;SDS011;34913;47.520;19.186;2023-08-17T14:09:05;8.45;;;4.78;;
49101;SDS011;34913;47.520;19.186;2023-08-17T14:11:31;7.25;;;5.35;;
49101;SDS011;34913;47.520;19.186;2023-08-17T14:13:56;7.15;;;5.88;;
49101;SDS011;34913;47.520;19.186;2023-08-17T14:16:22;9.07;;;5.72;;
49101;SDS011;34913;47.520;19.186;2023-08-17T14:18:47;6.72;;;5.45;;
49101;SDS011;34913;47.520;19.186;2023-08-17T14:21:13;6.38;;;5.78;;
49101;SDS011;34913;47.520;19.186;2023-08-17T14:23:38;12.35;;;10.57;;
49101;SDS011;34913;47.520;19.186;2023-08-17T14:26:04;11.68;;;8.35;;
49101;SDS011;34913;47.520;19.186;2023-08-17T14:28:30;8.23;;;7.43;;